createdAt,value
2018-06-15T00:00:17.819Z,83.29
2018-06-15T00:01:17.974Z,83.38
2018-06-15T00:02:18.124Z,82.90
2018-06-15T00:03:18.280Z,82.71
2018-06-15T00:04:18.435Z,83.33
2018-06-15T00:05:18.585Z,82.75
2018-06-15T00:06:18.739Z,83.00
2018-06-15T00:07:18.892Z,83.42
2018-06-15T00:08:19.047Z,83.52
2018-06-15T00:09:19.203Z,83.48
2018-06-15T00:10:19.354Z,83.48
2018-06-15T00:11:19.509Z,83.29
2018-06-15T00:12:19.661Z,83.86
2018-06-15T00:13:19.814Z,84.34
2018-06-15T00:14:19.967Z,83.76
2018-06-15T00:15:20.129Z,84.72
2018-06-15T00:16:20.282Z,85.11
2018-06-15T00:17:20.438Z,85.21
2018-06-15T00:18:20.588Z,85.45
2018-06-15T00:19:20.741Z,85.45
2018-06-15T00:20:20.895Z,86.41
2018-06-15T00:21:21.049Z,86.50
2018-06-15T00:22:21.204Z,86.41
2018-06-15T00:23:21.360Z,86.31
2018-06-15T00:24:21.514Z,86.12
2018-06-15T00:25:21.665Z,85.54
2018-06-15T00:26:21.824Z,85.30
2018-06-15T00:27:21.976Z,84.53
2018-06-15T00:28:22.128Z,84.82
2018-06-15T00:29:22.296Z,84.82
2018-06-15T00:30:22.436Z,84.63
2018-06-15T00:31:22.590Z,84.05
2018-06-15T00:32:22.746Z,83.86
2018-06-15T00:33:22.898Z,83.48
2018-06-15T00:34:23.051Z,83.76
2018-06-15T00:35:23.205Z,84.63
2018-06-15T00:36:23.363Z,84.91
2018-06-15T00:37:23.510Z,84.82
2018-06-15T00:38:23.667Z,84.34
2018-06-15T00:39:23.820Z,84.72
2018-06-15T00:40:23.973Z,84.72
2018-06-15T00:41:24.128Z,85.11
2018-06-15T00:42:24.283Z,86.16
2018-06-15T00:43:24.434Z,86.16
2018-06-15T00:44:24.588Z,86.31
2018-06-15T00:45:24.743Z,86.41
2018-06-15T00:46:24.897Z,86.41
2018-06-15T00:47:25.049Z,86.69
2018-06-15T00:48:25.204Z,86.50
2018-06-15T00:49:25.359Z,86.50
2018-06-15T00:50:25.513Z,86.79
2018-06-15T00:51:25.664Z,86.88
2018-06-15T00:52:25.817Z,86.41
2018-06-15T00:53:25.971Z,86.50
2018-06-15T00:54:26.125Z,86.41
2018-06-15T00:55:26.278Z,86.98
2018-06-15T00:56:26.433Z,86.41
2018-06-15T00:57:26.588Z,86.64
2018-06-15T00:58:26.742Z,86.50
2018-06-15T00:59:26.896Z,86.79
2018-06-15T01:00:27.050Z,86.69
2018-06-15T01:01:27.207Z,87.27
2018-06-15T01:02:27.355Z,87.94
2018-06-15T01:03:27.509Z,87.55
2018-06-15T01:04:27.665Z,87.17
2018-06-15T01:05:27.805Z,86.60
2018-06-15T01:06:27.968Z,86.69
2018-06-15T01:07:28.124Z,86.69
2018-06-15T01:08:28.276Z,86.46
2018-06-15T01:09:28.431Z,87.27
2018-06-15T01:10:28.583Z,87.46
2018-06-15T01:11:28.737Z,87.41
2018-06-15T01:12:28.916Z,87.46
2018-06-15T01:13:29.069Z,87.84
2018-06-15T01:14:29.225Z,87.94
2018-06-15T01:15:29.379Z,87.46
2018-06-15T01:16:29.532Z,87.17
2018-06-15T01:17:29.684Z,87.17
2018-06-15T01:18:29.838Z,86.02
2018-06-15T01:19:29.992Z,86.69
2018-06-15T01:20:30.146Z,86.02
2018-06-15T01:21:30.299Z,86.41
2018-06-15T01:22:30.453Z,86.69
2018-06-15T01:23:30.605Z,86.88
2018-06-15T01:24:30.761Z,87.32
2018-06-15T01:25:30.914Z,88.09
2018-06-15T01:26:31.068Z,88.09
2018-06-15T01:27:31.221Z,88.76
2018-06-15T01:28:31.376Z,88.23
2018-06-15T01:29:31.530Z,88.42
2018-06-15T01:30:31.680Z,87.74
2018-06-15T01:31:31.836Z,87.65
2018-06-15T01:32:31.992Z,87.46
2018-06-15T01:33:32.145Z,88.42
2018-06-15T01:34:32.298Z,88.76
2018-06-15T01:35:32.452Z,89.37
2018-06-15T01:36:32.605Z,89.47
2018-06-15T01:37:32.762Z,88.76
2018-06-15T01:38:32.913Z,89.14
2018-06-15T01:39:33.070Z,90.39
2018-06-15T01:40:33.220Z,90.48
2018-06-15T01:41:33.375Z,90.09
2018-06-15T01:42:33.529Z,90.67
2018-06-15T01:43:33.684Z,91.05
2018-06-15T01:44:33.840Z,91.25
2018-06-15T01:45:33.993Z,90.86
2018-06-15T01:46:34.149Z,91.05
2018-06-15T01:47:34.304Z,91.05
2018-06-15T01:48:34.476Z,90.48
2018-06-15T01:49:34.609Z,90.96
2018-06-15T01:50:34.762Z,90.86
2018-06-15T01:51:34.915Z,90.96
2018-06-15T01:52:35.070Z,90.58
2018-06-15T01:53:35.220Z,90.86
2018-06-15T01:54:35.373Z,90.15
2018-06-15T01:55:35.526Z,90.39
2018-06-15T01:56:35.679Z,90.19
2018-06-15T01:57:35.833Z,89.86
2018-06-15T01:58:35.988Z,90.09
2018-06-15T01:59:36.139Z,89.76
2018-06-15T02:00:36.291Z,89.48
2018-06-15T02:01:36.443Z,90.24
2018-06-15T02:02:36.598Z,90.09
2018-06-15T02:03:36.751Z,89.67
2018-06-15T02:04:36.908Z,90.34
2018-06-15T02:05:37.059Z,90.05
2018-06-15T02:06:37.212Z,90.48
2018-06-15T02:07:37.365Z,90.67
2018-06-15T02:08:37.519Z,90.48
2018-06-15T02:09:37.710Z,90.29
2018-06-15T02:10:37.828Z,90.00
2018-06-15T02:11:37.985Z,90.82
2018-06-15T02:12:38.139Z,90.82
2018-06-15T02:13:38.294Z,90.96
2018-06-15T02:14:38.440Z,91.05
2018-06-15T02:15:38.605Z,91.05
2018-06-15T02:16:38.761Z,91.05
2018-06-15T02:17:38.913Z,90.86
2018-06-15T02:18:39.066Z,90.96
2018-06-15T02:19:39.220Z,89.72
2018-06-15T02:20:39.375Z,89.33
2018-06-15T02:21:39.529Z,89.23
2018-06-15T02:22:39.683Z,88.95
2018-06-15T02:23:39.836Z,89.14
2018-06-15T02:24:39.988Z,88.66
2018-06-15T02:25:40.144Z,88.95
2018-06-15T02:26:40.297Z,89.62
2018-06-15T02:27:40.451Z,89.62
2018-06-15T02:28:40.604Z,89.23
2018-06-15T02:29:40.757Z,89.33
2018-06-15T02:30:40.913Z,88.47
2018-06-15T02:31:41.066Z,88.95
2018-06-15T02:32:41.220Z,88.66
2018-06-15T02:33:41.372Z,88.95
2018-06-15T02:34:41.526Z,88.95
2018-06-15T02:35:41.680Z,88.95
2018-06-15T02:36:41.835Z,88.95
2018-06-15T02:37:41.988Z,89.04
2018-06-15T02:38:42.154Z,89.33
2018-06-15T02:39:42.292Z,88.56
2018-06-15T02:40:42.466Z,88.85
2018-06-15T02:41:42.622Z,88.95
2018-06-15T02:42:42.773Z,88.56
2018-06-15T02:43:42.930Z,88.95
2018-06-15T02:44:43.081Z,89.14
2018-06-15T02:45:43.237Z,88.76
2018-06-15T02:46:43.391Z,88.95
2018-06-15T02:47:43.545Z,89.52
2018-06-15T02:48:43.698Z,90.19
2018-06-15T02:49:43.853Z,90.29
2018-06-15T02:50:44.007Z,89.90
2018-06-15T02:51:44.159Z,90.09
2018-06-15T02:52:44.314Z,90.19
2018-06-15T02:53:44.467Z,90.19
2018-06-15T02:54:44.620Z,90.67
2018-06-15T02:55:44.775Z,91.15
2018-06-15T02:56:44.927Z,91.15
2018-06-15T02:57:45.083Z,90.67
2018-06-15T02:58:45.237Z,91.05
2018-06-15T02:59:45.391Z,90.77
2018-06-15T03:00:45.545Z,90.96
2018-06-15T03:01:45.699Z,90.96
2018-06-15T03:02:45.853Z,90.39
2018-06-15T03:03:46.007Z,90.67
2018-06-15T03:04:46.163Z,90.77
2018-06-15T03:05:46.317Z,90.29
2018-06-15T03:06:46.470Z,90.96
2018-06-15T03:07:46.626Z,90.29
2018-06-15T03:08:46.781Z,90.48
2018-06-15T03:09:46.933Z,90.58
2018-06-15T03:10:47.089Z,91.05
2018-06-15T03:11:47.246Z,92.21
2018-06-15T03:12:47.395Z,92.30
2018-06-15T03:13:47.548Z,92.01
2018-06-15T03:14:47.701Z,92.01
2018-06-15T03:15:47.856Z,91.92
2018-06-15T03:16:48.013Z,92.01
2018-06-15T03:17:48.167Z,92.01
2018-06-15T03:18:48.319Z,91.92
2018-06-15T03:19:48.474Z,91.82
2018-06-15T03:20:48.638Z,91.72
2018-06-15T03:21:48.781Z,91.82
2018-06-15T03:22:48.936Z,92.63
2018-06-15T03:23:49.090Z,92.68
2018-06-15T03:24:49.244Z,92.21
2018-06-15T03:25:49.402Z,91.92
2018-06-15T03:26:49.556Z,91.97
2018-06-15T03:27:49.752Z,92.68
2018-06-15T03:28:49.863Z,92.16
2018-06-15T03:29:50.016Z,92.49
2018-06-15T03:30:50.177Z,92.58
2018-06-15T03:31:50.325Z,92.21
2018-06-15T03:32:50.480Z,91.92
2018-06-15T03:33:50.635Z,91.63
2018-06-15T03:34:50.786Z,91.44
2018-06-15T03:35:50.939Z,91.25
2018-06-15T03:36:51.097Z,91.34
2018-06-15T03:37:51.249Z,90.48
2018-06-15T03:38:51.402Z,90.67
2018-06-15T03:39:51.556Z,91.19
2018-06-15T03:40:51.713Z,91.67
2018-06-15T03:41:51.865Z,90.67
2018-06-15T03:42:52.019Z,91.25
2018-06-15T03:43:52.171Z,92.01
2018-06-15T03:44:52.326Z,91.25
2018-06-15T03:45:52.486Z,91.53
2018-06-15T03:46:52.634Z,91.72
2018-06-15T03:47:52.787Z,91.34
2018-06-15T03:48:52.941Z,92.01
2018-06-15T03:49:53.097Z,91.53
2018-06-15T03:50:53.251Z,91.15
2018-06-15T03:51:53.406Z,90.77
2018-06-15T03:52:53.560Z,90.14
2018-06-15T03:53:53.718Z,90.29
2018-06-15T03:54:53.875Z,90.67
2018-06-15T03:55:54.024Z,90.09
2018-06-15T03:56:54.178Z,90.14
2018-06-15T03:57:54.333Z,90.05
2018-06-15T03:58:54.528Z,90.72
2018-06-15T03:59:54.642Z,90.00
2018-06-15T04:00:54.797Z,90.29
2018-06-15T04:01:54.951Z,90.43
2018-06-15T04:02:55.105Z,90.29
2018-06-15T04:03:55.258Z,90.05
2018-06-15T04:04:55.412Z,90.23
2018-06-15T04:05:55.565Z,89.66
2018-06-15T04:06:55.720Z,89.57
2018-06-15T04:07:55.875Z,89.66
2018-06-15T04:08:56.030Z,88.99
2018-06-15T04:09:56.182Z,88.51
2018-06-15T04:10:56.339Z,88.70
2018-06-15T04:11:56.492Z,88.99
2018-06-15T04:12:56.719Z,88.80
2018-06-15T04:13:56.805Z,89.28
2018-06-15T04:14:56.958Z,89.95
2018-06-15T04:15:57.112Z,90.14
2018-06-15T04:16:57.265Z,89.95
2018-06-15T04:17:57.419Z,90.14
2018-06-15T04:18:57.574Z,90.43
2018-06-15T04:19:57.728Z,90.43
2018-06-15T04:20:57.886Z,90.05
2018-06-15T04:21:58.034Z,89.95
2018-06-15T04:22:58.188Z,91.00
2018-06-15T04:23:58.344Z,91.29
2018-06-15T04:24:58.500Z,91.19
2018-06-15T04:25:58.654Z,91.00
2018-06-15T04:26:58.807Z,91.19
2018-06-15T04:27:58.961Z,91.29
2018-06-15T04:28:59.118Z,90.91
2018-06-15T04:29:59.271Z,91.58
2018-06-15T04:30:59.429Z,91.77
2018-06-15T04:31:59.580Z,91.00
2018-06-15T04:32:59.741Z,92.06
2018-06-15T04:33:59.889Z,91.58
2018-06-15T04:35:00.043Z,91.77
2018-06-15T04:36:00.197Z,91.86
2018-06-15T04:37:00.353Z,92.54
2018-06-15T04:38:00.510Z,92.44
2018-06-15T04:39:00.662Z,91.96
2018-06-15T04:40:00.814Z,91.19
2018-06-15T04:41:00.971Z,91.58
2018-06-15T04:42:01.128Z,91.00
2018-06-15T04:43:01.286Z,91.49
2018-06-15T04:44:01.441Z,90.43
2018-06-15T04:45:01.593Z,91.10
2018-06-15T04:46:01.751Z,90.33
2018-06-15T04:47:01.903Z,90.09
2018-06-15T04:48:02.057Z,90.47
2018-06-15T04:49:02.213Z,90.19
2018-06-15T04:50:02.367Z,90.67
2018-06-15T04:51:02.523Z,89.90
2018-06-15T04:52:02.678Z,89.32
2018-06-15T04:53:02.833Z,89.37
2018-06-15T04:54:02.987Z,89.61
2018-06-15T04:55:03.143Z,89.42
2018-06-15T04:56:03.298Z,89.71
2018-06-15T04:57:03.452Z,89.61
2018-06-15T04:58:03.609Z,89.04
2018-06-15T04:59:03.764Z,88.56
2018-06-15T05:00:03.920Z,88.79
2018-06-15T05:01:04.073Z,88.41
2018-06-15T05:02:04.230Z,89.47
2018-06-15T05:03:04.386Z,89.27
2018-06-15T05:04:04.540Z,88.79
2018-06-15T05:05:04.695Z,88.41
2018-06-15T05:06:04.850Z,88.31
2018-06-15T05:07:05.007Z,87.93
2018-06-15T05:08:05.162Z,87.55
2018-06-15T05:09:05.318Z,86.40
2018-06-15T05:10:05.471Z,86.58
2018-06-15T05:11:05.628Z,87.35
2018-06-15T05:12:05.782Z,86.21
2018-06-15T05:13:05.940Z,86.92
2018-06-15T05:14:06.094Z,86.05
2018-06-15T05:15:06.255Z,86.88
2018-06-15T05:16:06.407Z,87.11
2018-06-15T05:17:06.578Z,85.58
2018-06-15T05:18:06.715Z,84.91
2018-06-15T05:19:06.873Z,83.75
2018-06-15T05:20:07.028Z,83.65
2018-06-15T05:21:07.184Z,83.65
2018-06-15T05:22:07.341Z,83.70
2018-06-15T05:23:07.496Z,83.98
2018-06-15T05:24:07.651Z,83.22
2018-06-15T05:25:07.808Z,83.03
2018-06-15T05:26:07.963Z,82.74
2018-06-15T05:27:08.116Z,82.20
2018-06-15T05:28:08.276Z,83.45
2018-06-15T05:29:08.430Z,83.64
2018-06-15T05:30:08.584Z,82.78
2018-06-15T05:31:08.738Z,82.97
2018-06-15T05:32:08.896Z,82.87
2018-06-15T05:33:09.050Z,81.82
2018-06-15T05:34:09.209Z,81.48
2018-06-15T05:35:09.364Z,80.51
2018-06-15T05:36:09.520Z,81.28
2018-06-15T05:37:09.673Z,81.24
2018-06-15T05:38:09.830Z,82.40
2018-06-15T05:39:09.990Z,82.74
2018-06-15T05:40:10.148Z,83.98
2018-06-15T05:41:10.300Z,83.89
2018-06-15T05:42:10.459Z,84.08
2018-06-15T05:43:10.613Z,84.41
2018-06-15T05:44:10.766Z,83.16
2018-06-15T05:45:10.927Z,82.40
2018-06-15T05:46:11.080Z,81.92
2018-06-15T05:47:11.236Z,81.09
2018-06-15T05:48:11.392Z,81.53
2018-06-15T05:49:11.550Z,83.30
2018-06-15T05:50:11.706Z,81.86
2018-06-15T05:51:11.862Z,81.67
2018-06-15T05:52:12.018Z,81.72
2018-06-15T05:53:12.178Z,81.67
2018-06-15T05:54:12.338Z,81.28
2018-06-15T05:55:12.523Z,80.71
2018-06-15T05:56:12.643Z,81.09
2018-06-15T05:57:12.798Z,80.90
2018-06-15T05:58:12.956Z,80.38
2018-06-15T05:59:13.110Z,81.24
2018-06-15T06:00:13.267Z,82.45
2018-06-15T06:01:13.426Z,82.74
2018-06-15T06:02:13.581Z,82.45
2018-06-15T06:03:13.740Z,82.20
2018-06-15T06:04:13.908Z,82.10
2018-06-15T06:05:14.053Z,82.40
2018-06-15T06:06:14.208Z,82.01
2018-06-15T06:07:14.365Z,82.20
2018-06-15T06:08:14.523Z,81.92
2018-06-15T06:09:14.677Z,82.40
2018-06-15T06:10:14.834Z,83.07
2018-06-15T06:11:14.989Z,82.78
2018-06-15T06:12:15.144Z,83.11
2018-06-15T06:13:15.300Z,82.92
2018-06-15T06:14:15.456Z,81.76
2018-06-15T06:15:15.614Z,81.28
2018-06-15T06:16:15.771Z,80.65
2018-06-15T06:17:15.929Z,80.17
2018-06-15T06:18:16.085Z,80.17
2018-06-15T06:19:16.270Z,79.65
2018-06-15T06:20:16.397Z,79.94
2018-06-15T06:21:16.554Z,80.04
2018-06-15T06:22:16.711Z,79.79
2018-06-15T06:23:16.868Z,79.21
2018-06-15T06:24:17.024Z,78.73
2018-06-15T06:25:17.181Z,78.92
2018-06-15T06:26:17.338Z,79.69
2018-06-15T06:27:17.498Z,79.11
2018-06-15T06:28:17.652Z,78.63
2018-06-15T06:29:17.807Z,78.44
2018-06-15T06:30:17.964Z,78.53
2018-06-15T06:31:18.125Z,77.48
2018-06-15T06:32:18.283Z,78.48
2018-06-15T06:33:18.437Z,78.00
2018-06-15T06:34:18.593Z,78.48
2018-06-15T06:35:18.753Z,79.15
2018-06-15T06:36:18.908Z,78.58
2018-06-15T06:37:19.063Z,77.90
2018-06-15T06:38:19.222Z,78.58
2018-06-15T06:39:19.376Z,78.83
2018-06-15T06:40:19.538Z,80.51
2018-06-15T06:41:19.691Z,80.75
2018-06-15T06:42:19.849Z,80.46
2018-06-15T06:43:20.008Z,79.79
2018-06-15T06:44:20.165Z,80.27
2018-06-15T06:45:20.320Z,80.27
2018-06-15T06:46:20.476Z,80.27
2018-06-15T06:47:20.634Z,81.48
2018-06-15T06:48:20.791Z,81.96
2018-06-15T06:49:20.949Z,82.19
2018-06-15T06:50:21.106Z,81.67
2018-06-15T06:51:21.263Z,81.57
2018-06-15T06:52:21.420Z,81.96
2018-06-15T06:53:21.577Z,80.71
2018-06-15T06:54:21.733Z,80.80
2018-06-15T06:55:21.888Z,80.90
2018-06-15T06:56:22.047Z,81.32
2018-06-15T06:57:22.203Z,81.99
2018-06-15T06:58:22.360Z,82.76
2018-06-15T06:59:22.515Z,82.29
2018-06-15T07:00:22.675Z,83.01
2018-06-15T07:01:22.832Z,82.82
2018-06-15T07:02:22.986Z,83.30
2018-06-15T07:03:23.148Z,83.01
2018-06-15T07:04:23.304Z,83.69
2018-06-15T07:05:23.460Z,83.40
2018-06-15T07:06:23.628Z,83.69
2018-06-15T07:07:23.774Z,84.45
2018-06-15T07:08:23.935Z,84.17
2018-06-15T07:09:24.088Z,83.69
2018-06-15T07:10:24.248Z,83.69
2018-06-15T07:11:24.404Z,83.69
2018-06-15T07:12:24.561Z,83.30
2018-06-15T07:13:24.720Z,83.87
2018-06-15T07:14:24.879Z,84.74
2018-06-15T07:15:25.036Z,83.30
2018-06-15T07:16:25.193Z,83.30
2018-06-15T07:17:25.350Z,83.69
2018-06-15T07:18:25.507Z,83.69
2018-06-15T07:19:25.662Z,82.86
2018-06-15T07:20:25.820Z,81.99
2018-06-15T07:21:25.978Z,82.38
2018-06-15T07:22:26.135Z,82.67
2018-06-15T07:23:26.290Z,80.79
2018-06-15T07:24:26.453Z,80.27
2018-06-15T07:25:26.608Z,78.53
2018-06-15T07:26:26.766Z,78.00
2018-06-15T07:27:26.921Z,77.51
2018-06-15T07:28:27.079Z,78.19
2018-06-15T07:29:27.236Z,78.67
2018-06-15T07:30:27.394Z,78.58
2018-06-15T07:31:27.549Z,77.04
2018-06-15T07:32:27.707Z,77.51
2018-06-15T07:33:27.879Z,77.71
2018-06-15T07:34:28.022Z,78.09
2018-06-15T07:35:28.177Z,78.67
2018-06-15T07:36:28.334Z,78.19
2018-06-15T07:37:28.490Z,77.26
2018-06-15T07:38:28.653Z,77.17
2018-06-15T07:39:28.804Z,77.08
2018-06-15T07:40:28.962Z,76.40
2018-06-15T07:41:29.121Z,76.78
2018-06-15T07:42:29.276Z,76.59
2018-06-15T07:43:29.435Z,75.49
2018-06-15T07:44:29.590Z,75.31
2018-06-15T07:45:29.746Z,76.11
2018-06-15T07:46:29.903Z,76.69
2018-06-15T07:47:30.061Z,76.40
2018-06-15T07:48:30.219Z,76.69
2018-06-15T07:49:30.375Z,76.40
2018-06-15T07:50:30.532Z,77.13
2018-06-15T07:51:30.689Z,76.78
2018-06-15T07:52:30.901Z,76.50
2018-06-15T07:53:31.009Z,76.59
2018-06-15T07:54:31.161Z,75.59
2018-06-15T07:55:31.319Z,76.26
2018-06-15T07:56:31.477Z,77.42
2018-06-15T07:57:31.635Z,76.26
2018-06-15T07:58:31.791Z,76.42
2018-06-15T07:59:31.963Z,77.23
2018-06-15T08:00:32.108Z,77.38
2018-06-15T08:01:32.264Z,77.42
2018-06-15T08:02:32.420Z,76.84
2018-06-15T08:03:32.577Z,77.04
2018-06-15T08:04:32.736Z,77.76
2018-06-15T08:05:32.892Z,77.81
2018-06-15T08:06:33.051Z,77.51
2018-06-15T08:07:33.209Z,78.53
2018-06-15T08:08:33.370Z,78.73
2018-06-15T08:09:33.525Z,79.21
2018-06-15T08:10:33.684Z,78.53
2018-06-15T08:11:33.841Z,79.30
2018-06-15T08:12:33.998Z,78.44
2018-06-15T08:13:34.155Z,78.15
2018-06-15T08:14:34.315Z,77.38
2018-06-15T08:15:34.474Z,77.48
2018-06-15T08:16:34.629Z,77.96
2018-06-15T08:17:34.784Z,78.34
2018-06-15T08:18:34.940Z,78.15
2018-06-15T08:19:35.101Z,77.29
2018-06-15T08:20:35.257Z,77.09
2018-06-15T08:21:35.463Z,78.25
2018-06-15T08:22:35.574Z,78.21
2018-06-15T08:23:35.733Z,79.07
2018-06-15T08:24:35.890Z,80.13
2018-06-15T08:25:36.045Z,81.09
2018-06-15T08:26:36.201Z,81.05
2018-06-15T08:27:36.359Z,81.63
2018-06-15T08:28:36.515Z,82.40
2018-06-15T08:29:36.671Z,83.59
2018-06-15T08:30:36.828Z,83.16
2018-06-15T08:31:36.983Z,83.16
2018-06-15T08:32:37.143Z,83.98
2018-06-15T08:33:37.299Z,85.24
2018-06-15T08:34:37.454Z,84.37
2018-06-15T08:35:37.614Z,87.11
2018-06-15T08:36:37.768Z,87.78
2018-06-15T08:37:37.926Z,88.45
2018-06-15T08:38:38.083Z,89.51
2018-06-15T08:39:38.240Z,87.74
2018-06-15T08:40:38.396Z,87.93
2018-06-15T08:41:38.552Z,89.32
2018-06-15T08:42:38.709Z,89.70
2018-06-15T08:43:38.865Z,89.61
2018-06-15T08:44:39.024Z,89.22
2018-06-15T08:45:39.177Z,89.61
2018-06-15T08:46:39.334Z,90.95
2018-06-15T08:47:39.492Z,90.80
2018-06-15T08:48:39.647Z,90.52
2018-06-15T08:49:39.804Z,89.26
2018-06-15T08:50:39.961Z,89.26
2018-06-15T08:51:40.118Z,90.32
2018-06-15T08:52:40.297Z,90.52
2018-06-15T08:53:40.430Z,89.12
2018-06-15T08:54:40.586Z,88.06
2018-06-15T08:55:40.743Z,88.73
2018-06-15T08:56:40.897Z,89.12
2018-06-15T08:57:41.053Z,88.16
2018-06-15T08:58:41.211Z,87.35
2018-06-15T08:59:41.366Z,86.96
2018-06-15T09:00:41.525Z,85.42
2018-06-15T09:01:41.681Z,87.10
2018-06-15T09:02:41.843Z,86.91
2018-06-15T09:03:41.999Z,86.91
2018-06-15T09:04:42.152Z,84.31
2018-06-15T09:05:42.310Z,84.51
2018-06-15T09:06:42.478Z,84.89
2018-06-15T09:07:42.654Z,84.31
2018-06-15T09:08:42.786Z,85.57
2018-06-15T09:09:42.943Z,85.75
2018-06-15T09:10:43.102Z,85.51
2018-06-15T09:11:43.263Z,84.89
2018-06-15T09:12:43.413Z,83.87
2018-06-15T09:13:43.570Z,84.07
2018-06-15T09:14:43.724Z,83.01
2018-06-15T09:15:43.943Z,83.69
2018-06-15T09:16:44.040Z,83.30
2018-06-15T09:17:44.205Z,83.30
2018-06-15T09:18:44.355Z,83.87
2018-06-15T09:19:44.511Z,83.20
2018-06-15T09:20:44.671Z,83.74
2018-06-15T09:21:44.826Z,83.97
2018-06-15T09:22:44.983Z,84.26
2018-06-15T09:23:45.141Z,83.97
2018-06-15T09:24:45.296Z,83.59
2018-06-15T09:25:45.455Z,83.69
2018-06-15T09:26:45.610Z,84.84
2018-06-15T09:27:45.767Z,84.17
2018-06-15T09:28:45.926Z,83.69
2018-06-15T09:29:46.083Z,83.87
2018-06-15T09:30:46.246Z,83.40
2018-06-15T09:31:46.401Z,83.59
2018-06-15T09:32:46.554Z,83.49
2018-06-15T09:33:46.712Z,84.36
2018-06-15T09:34:46.869Z,83.92
2018-06-15T09:35:47.028Z,83.25
2018-06-15T09:36:47.186Z,81.81
2018-06-15T09:37:47.343Z,81.90
2018-06-15T09:38:47.505Z,82.76
2018-06-15T09:39:47.658Z,82.57
2018-06-15T09:40:47.867Z,81.28
2018-06-15T09:41:47.973Z,82.82
2018-06-15T09:42:48.131Z,81.32
2018-06-15T09:43:48.290Z,80.75
2018-06-15T09:44:48.447Z,79.30
2018-06-15T09:45:48.603Z,79.02
2018-06-15T09:46:48.762Z,78.44
2018-06-15T09:47:48.924Z,78.44
2018-06-15T09:48:49.074Z,78.09
2018-06-15T09:49:49.234Z,78.09
2018-06-15T09:50:49.393Z,77.61
2018-06-15T09:51:49.548Z,78.77
2018-06-15T09:52:49.723Z,77.04
2018-06-15T09:53:49.919Z,78.86
2018-06-15T09:54:50.022Z,79.92
2018-06-15T09:55:50.181Z,78.67
2018-06-15T09:56:50.341Z,79.38
2018-06-15T09:57:50.496Z,79.10
2018-06-15T09:58:50.655Z,77.01
2018-06-15T09:59:50.810Z,75.67
2018-06-15T10:00:50.969Z,73.46
2018-06-15T10:01:51.131Z,73.36
2018-06-15T10:02:51.289Z,72.97
2018-06-15T10:03:51.450Z,75.28
2018-06-15T10:04:51.610Z,75.57
2018-06-15T10:05:51.771Z,73.20
2018-06-15T10:06:51.925Z,72.24
2018-06-15T10:07:52.085Z,69.87
2018-06-15T10:08:52.243Z,68.42
2018-06-15T10:09:52.403Z,67.88
2018-06-15T10:10:52.559Z,68.45
2018-06-15T10:11:52.720Z,71.60
2018-06-15T10:12:52.879Z,71.60
2018-06-15T10:13:53.035Z,72.60
2018-06-15T10:14:53.195Z,70.86
2018-06-15T10:15:53.511Z,68.35
2018-06-15T10:16:53.547Z,68.84
2018-06-15T10:17:53.708Z,69.45
2018-06-15T10:18:53.872Z,69.35
2018-06-15T10:19:54.035Z,68.74
2018-06-15T10:20:54.189Z,68.01
2018-06-15T10:21:54.346Z,66.97
2018-06-15T10:22:54.510Z,67.62
2018-06-15T10:23:54.668Z,67.97
2018-06-15T10:24:54.831Z,68.87
2018-06-15T10:25:54.995Z,71.25
2018-06-15T10:26:55.153Z,69.13
2018-06-15T10:27:55.314Z,69.90
2018-06-15T10:28:55.473Z,70.38
2018-06-15T10:29:55.634Z,70.57
2018-06-15T10:30:55.796Z,68.65
2018-06-15T10:31:55.956Z,70.67
2018-06-15T10:32:56.123Z,71.86
2018-06-15T10:33:56.274Z,69.74
2018-06-15T10:34:56.435Z,66.27
2018-06-15T10:35:56.598Z,65.78
2018-06-15T10:36:56.760Z,66.75
2018-06-15T10:37:56.919Z,67.04
2018-06-15T10:38:57.076Z,67.17
2018-06-15T10:39:57.239Z,65.53
2018-06-15T10:40:57.403Z,65.24
2018-06-15T10:41:57.565Z,64.31
2018-06-15T10:42:57.723Z,63.24
2018-06-15T10:43:57.882Z,65.01
2018-06-15T10:44:58.047Z,62.40
2018-06-15T10:45:58.256Z,60.99
2018-06-15T10:46:58.367Z,60.82
2018-06-15T10:47:58.527Z,60.11
2018-06-15T10:48:58.688Z,59.66
2018-06-15T10:49:58.849Z,59.21
2018-06-15T10:50:59.012Z,59.01
2018-06-15T10:51:59.170Z,58.04
2018-06-15T10:52:59.333Z,57.82
2018-06-15T10:53:59.494Z,58.89
2018-06-15T10:54:59.654Z,60.76
2018-06-15T10:55:59.815Z,60.76
2018-06-15T10:56:59.976Z,61.08
2018-06-15T10:58:00.137Z,58.89
2018-06-15T10:59:00.298Z,61.24
2018-06-15T11:00:00.463Z,59.89
2018-06-15T11:01:00.622Z,59.50
2018-06-15T11:02:00.783Z,59.25
2018-06-15T11:03:00.941Z,59.25
2018-06-15T11:04:01.108Z,59.38
2018-06-15T11:05:01.265Z,59.44
2018-06-15T11:06:01.425Z,58.54
2018-06-15T11:07:01.587Z,59.02
2018-06-15T11:08:01.749Z,59.95
2018-06-15T11:09:01.941Z,58.31
2018-06-15T11:10:02.078Z,59.41
2018-06-15T11:11:02.241Z,61.15
2018-06-15T11:12:02.401Z,59.77
2018-06-15T11:13:02.567Z,60.71
2018-06-15T11:14:02.738Z,60.93
2018-06-15T11:15:02.893Z,61.25
2018-06-15T11:16:03.054Z,60.89
2018-06-15T11:17:03.213Z,60.05
2018-06-15T11:18:03.377Z,58.21
2018-06-15T11:19:03.540Z,57.05
2018-06-15T11:20:03.699Z,57.82
2018-06-15T11:21:03.860Z,56.60
2018-06-15T11:22:04.026Z,54.08
2018-06-15T11:23:04.187Z,55.17
2018-06-15T11:24:04.346Z,54.75
2018-06-15T11:25:04.508Z,54.79
2018-06-15T11:26:04.671Z,54.23
2018-06-15T11:27:04.831Z,57.23
2018-06-15T11:28:04.994Z,55.40
2018-06-15T11:29:05.155Z,53.55
2018-06-15T11:30:05.321Z,54.85
2018-06-15T11:31:05.491Z,55.36
2018-06-15T11:32:05.647Z,56.67
2018-06-15T11:33:05.808Z,57.08
2018-06-15T11:34:05.972Z,55.43
2018-06-15T11:35:06.134Z,55.07
2018-06-15T11:36:06.301Z,58.95
2018-06-15T11:37:06.460Z,59.95
2018-06-15T11:38:06.625Z,59.66
2018-06-15T11:39:06.784Z,58.89
2018-06-15T11:40:06.951Z,58.37
2018-06-15T11:41:07.138Z,59.28
2018-06-15T11:42:07.280Z,59.08
2018-06-15T11:43:07.445Z,59.08
2018-06-15T11:44:07.607Z,59.08
2018-06-15T11:45:07.769Z,58.76
2018-06-15T11:46:07.933Z,59.56
2018-06-15T11:47:08.095Z,59.83
2018-06-15T11:48:08.266Z,62.05
2018-06-15T11:49:08.425Z,61.18
2018-06-15T11:50:08.586Z,60.99
2018-06-15T11:51:08.747Z,61.08
2018-06-15T11:52:08.909Z,61.54
2018-06-15T11:53:09.073Z,62.79
2018-06-15T11:54:09.237Z,63.82
2018-06-15T11:55:09.400Z,65.08
2018-06-15T11:56:09.563Z,66.49
2018-06-15T11:57:09.724Z,63.82
2018-06-15T11:58:09.884Z,65.47
2018-06-15T11:59:10.049Z,63.73
2018-06-15T12:00:10.213Z,62.89
2018-06-15T12:01:10.375Z,64.40
2018-06-15T12:02:10.539Z,64.86
2018-06-15T12:03:10.698Z,62.95
2018-06-15T12:04:10.861Z,62.34
2018-06-15T12:05:11.023Z,63.63
2018-06-15T12:06:11.184Z,65.34
2018-06-15T12:07:11.346Z,65.27
2018-06-15T12:08:11.512Z,64.47
2018-06-15T12:09:11.670Z,64.56
2018-06-15T12:10:11.831Z,66.56
2018-06-15T12:11:11.993Z,65.72
2018-06-15T12:12:12.155Z,66.40
2018-06-15T12:13:12.315Z,66.40
2018-06-15T12:14:12.481Z,64.37
2018-06-15T12:15:12.637Z,65.72
2018-06-15T12:16:13.562Z,66.85
2018-06-15T12:17:12.975Z,66.27
2018-06-15T12:18:13.136Z,67.04
2018-06-15T12:19:13.296Z,66.36
2018-06-15T12:20:13.459Z,66.27
2018-06-15T12:21:13.622Z,67.23
2018-06-15T12:22:13.779Z,66.36
2018-06-15T12:23:13.945Z,65.34
2018-06-15T12:24:14.119Z,66.20
2018-06-15T12:25:14.286Z,64.28
2018-06-15T12:26:14.441Z,64.66
2018-06-15T12:27:14.628Z,64.21
2018-06-15T12:28:14.773Z,65.43
2018-06-15T12:29:14.928Z,67.07
2018-06-15T12:30:15.088Z,65.95
2018-06-15T12:31:15.252Z,67.30
2018-06-15T12:32:15.399Z,66.40
2018-06-15T12:33:15.619Z,66.97
2018-06-15T12:34:15.786Z,65.75
2018-06-15T12:35:15.899Z,64.01
2018-06-15T12:36:16.059Z,63.82
2018-06-15T12:37:16.219Z,65.37
2018-06-15T12:38:16.436Z,65.66
2018-06-15T12:39:16.556Z,67.97
2018-06-15T12:40:16.692Z,65.47
2018-06-15T12:41:16.844Z,64.37
2018-06-15T12:42:17.014Z,64.28
2018-06-15T12:43:17.166Z,64.37
2018-06-15T12:44:17.329Z,64.50
2018-06-15T12:45:17.504Z,64.43
2018-06-15T12:46:17.668Z,64.43
2018-06-15T12:47:17.833Z,64.24
2018-06-15T12:48:17.993Z,64.40
2018-06-15T12:49:18.154Z,64.98
2018-06-15T12:50:18.314Z,65.95
2018-06-15T12:51:18.533Z,65.08
2018-06-15T12:52:18.637Z,65.37
2018-06-15T12:53:18.796Z,65.69
2018-06-15T12:54:18.955Z,65.50